الصفحة الرئيسية
METAR-TAF:

METAR-TAF

مطار :

أوكلاند, نيوزيلندا

مطار أوكلاند الدولي

دائرة عرض: 37-01S, خط طول: 174-48E, ارتفاع: 7 متر

مراقبة الطقس الحالي

تاريخ ووقت الإصدار 14ساعات و 12 دقيقة قبل الساعة 15:00UTC
ريح 4 عقدة من الغرب/الشمال الغربي
درجة الحرارة 20°درجة مئوية
الرطوبة 88%
ضغط 1005 hPa
الرؤية 10 كم أو أكثر

METAR: NZAA 201500Z AUTO 30004KT 9999 SCT020/// SCT025/// BKN050/// 20/18 Q1005 NOSIG

زمن: 18:12 (05:12 UTC)

توقعات

تاريخ ووقت الإصدار 18ساعات و 9 دقيقة قبل الساعة 11:03UTC
التوقعات صالحة من20 الساعة 12 UTC إلى 21 الساعة 12 UTC
ريح 12 عقدة من الشمال الغربي
الرؤية 10 كم أو أكثر
غيوم قليلة على ارتفاع 1500 قدم
غيوم مفككة على ارتفاع 3000 قدم
زخات من الأمطار الخفيفة
أصبح
من 20 الساعة 18 UTC إلى 20 الساعة 20 UTC
ريح 15 عقدة من الشمال الغربي تتزايد حتى 25 عقدة

TAF: NZAA 201103Z 2012/2112 32012KT 9999 -SHRA FEW015 BKN030 BECMG 2018/2020 31015G25KT

أرصاد الطقس والتوقعات من أكثر من 4000 مطار (تقارير الطقس للمطار METAR والتنبؤ بالطقس بالمطارTAF).

المحطات المتاحة هي النقط الصفراء والحمراء على الخريطة.

حرك المؤشر فوق النقطة لمعرفة اسم المحطة.

ثم انقر لمعرفة أرصاد وتوقعات الطقس.

لتغيير الخارطة: اضغط على الأزرار الخضراء مع رمز الصليب الأسود للتكبير. على الزر الأخضر مع شرطة للتصغير، أو على الأسهم الخضراء للخرائط المجاورة.


METAR-TAF: